GLD1043 SBEG-SEQM
Flight info
| Callsign | GLD1043 |
|---|---|
| Flight time | 2h 41m |
| Altitude | 38000 |
| Route | VUNEP UM665 IQT UM776 ENVIG |
| Aircraft | B77W/H-SDE1E2E3FGHIJ2J3J4J5M1RWXYZ/LB1D1 |
Departure
| Time | 2026-04-27 22:22 |
|---|---|
| Airport | Eduardo Gomes International Airport (SBEG) |
Arrival
| Time | 2026-04-28 01:04 |
|---|---|
| Airport | Mariscal Sucre International Airport (SEQM) |
| Time | Latitude | Longitude | Altitude | Speed | Heading |
|---|---|---|---|---|---|
| 2026-04-27 21:50 | -3.03263 | -60.04778 | 275 ft | 0 kts | 350° |
| 2026-04-27 22:11 | -3.03265 | -60.04777 | 275 ft | 2 kts | 350° |
| 2026-04-27 22:12 | -3.03290 | -60.04773 | 275 ft | 4 kts | 350° |
| 2026-04-27 22:12 | -3.03317 | -60.04769 | 277 ft | 4 kts | 350° |
| 2026-04-27 22:12 | -3.03344 | -60.04764 | 275 ft | 3 kts | 350° |
| 2026-04-27 22:12 | -3.03366 | -60.04762 | 277 ft | 4 kts | 13° |
| 2026-04-27 22:13 | -3.03385 | -60.04774 | 283 ft | 4 kts | 68° |
| 2026-04-27 22:13 | -3.03393 | -60.04800 | 278 ft | 4 kts | 69° |
| 2026-04-27 22:13 | -3.03397 | -60.04809 | 279 ft | 0 kts | 57° |
| 2026-04-27 22:16 | -3.03396 | -60.04808 | 279 ft | 1 kts | 57° |
| 2026-04-27 22:16 | -3.03386 | -60.04793 | 280 ft | 4 kts | 58° |
| 2026-04-27 22:16 | -3.03369 | -60.04757 | 281 ft | 7 kts | 69° |
| 2026-04-27 22:17 | -3.03356 | -60.04705 | 275 ft | 9 kts | 82° |
| 2026-04-27 22:17 | -3.03352 | -60.04634 | 275 ft | 11 kts | 89° |
| 2026-04-27 22:17 | -3.03350 | -60.04552 | 275 ft | 12 kts | 89° |
| 2026-04-27 22:17 | -3.03342 | -60.04479 | 275 ft | 8 kts | 79° |
| 2026-04-27 22:18 | -3.03332 | -60.04421 | 275 ft | 8 kts | 91° |
| 2026-04-27 22:18 | -3.03372 | -60.04385 | 275 ft | 9 kts | 160° |
| 2026-04-27 22:18 | -3.03437 | -60.04360 | 275 ft | 11 kts | 158° |
| 2026-04-27 22:18 | -3.03502 | -60.04319 | 275 ft | 11 kts | 140° |
| 2026-04-27 22:19 | -3.03553 | -60.04260 | 275 ft | 11 kts | 123° |
| 2026-04-27 22:19 | -3.03588 | -60.04189 | 275 ft | 11 kts | 110° |
| 2026-04-27 22:19 | -3.03609 | -60.04116 | 275 ft | 11 kts | 106° |
| 2026-04-27 22:19 | -3.03630 | -60.04043 | 275 ft | 11 kts | 105° |
| 2026-04-27 22:20 | -3.03650 | -60.03968 | 275 ft | 12 kts | 105° |
| 2026-04-27 22:20 | -3.03672 | -60.03888 | 275 ft | 11 kts | 105° |
| 2026-04-27 22:20 | -3.03698 | -60.03817 | 275 ft | 11 kts | 121° |
| 2026-04-27 22:20 | -3.03754 | -60.03771 | 275 ft | 10 kts | 159° |
| 2026-04-27 22:21 | -3.03823 | -60.03767 | 254 ft | 7 kts | 185° |
| 2026-04-27 22:21 | -3.03858 | -60.03795 | 274 ft | 7 kts | 252° |
| 2026-04-27 22:21 | -3.03861 | -60.03835 | 274 ft | 15 kts | 268° |
| 2026-04-27 22:21 | -3.03861 | -60.04181 | 276 ft | 92 kts | 270° |
| 2026-04-27 22:22 | -3.03860 | -60.05089 | 274 ft | 167 kts | 270° |
| 2026-04-27 22:22 | -3.03860 | -60.06414 | 533 ft | 202 kts | 270° |
| 2026-04-27 22:22 | -3.03846 | -60.07806 | 1390 ft | 199 kts | 271° |
| 2026-04-27 22:22 | -3.03832 | -60.09232 | 2083 ft | 208 kts | 271° |
| 2026-04-27 22:23 | -3.03805 | -60.10758 | 2431 ft | 234 kts | 273° |
| 2026-04-27 22:23 | -3.03754 | -60.12468 | 2870 ft | 253 kts | 273° |
| 2026-04-27 22:23 | -3.03703 | -60.14261 | 3581 ft | 261 kts | 273° |
| 2026-04-27 22:23 | -3.03655 | -60.16102 | 4403 ft | 265 kts | 273° |
| 2026-04-27 22:24 | -3.03611 | -60.17932 | 5215 ft | 268 kts | 273° |
| 2026-04-27 22:24 | -3.03567 | -60.19815 | 5966 ft | 273 kts | 273° |
| 2026-04-27 22:24 | -3.03524 | -60.21733 | 6710 ft | 277 kts | 272° |
| 2026-04-27 22:24 | -3.03481 | -60.23675 | 7431 ft | 281 kts | 273° |
| 2026-04-27 22:25 | -3.03438 | -60.25656 | 8106 ft | 289 kts | 273° |
| 2026-04-27 22:25 | -3.03394 | -60.27697 | 8753 ft | 298 kts | 273° |
| 2026-04-27 22:25 | -3.03349 | -60.29789 | 9522 ft | 303 kts | 273° |
| 2026-04-27 22:25 | -3.03303 | -60.31906 | 10259 ft | 308 kts | 272° |
| 2026-04-27 22:26 | -3.03255 | -60.34122 | 10577 ft | 331 kts | 272° |
| 2026-04-27 22:26 | -3.03329 | -60.36523 | 10773 ft | 359 kts | 267° |
| 2026-04-27 22:26 | -3.03555 | -60.39089 | 11113 ft | 379 kts | 265° |
| 2026-04-27 22:26 | -3.03832 | -60.41713 | 11776 ft | 389 kts | 264° |
| 2026-04-27 22:27 | -3.04128 | -60.44459 | 12653 ft | 394 kts | 264° |
| 2026-04-27 22:27 | -3.04416 | -60.47199 | 13605 ft | 398 kts | 265° |
| 2026-04-27 22:27 | -3.04697 | -60.49975 | 14412 ft | 403 kts | 265° |
| 2026-04-27 22:27 | -3.04970 | -60.52751 | 15164 ft | 408 kts | 265° |
| 2026-04-27 22:28 | -3.05244 | -60.55600 | 15939 ft | 414 kts | 265° |
| 2026-04-27 22:28 | -3.05516 | -60.58481 | 16703 ft | 419 kts | 265° |
| 2026-04-27 22:28 | -3.05790 | -60.61399 | 17454 ft | 424 kts | 265° |
| 2026-04-27 22:28 | -3.06066 | -60.64352 | 18189 ft | 429 kts | 265° |
| 2026-04-27 22:29 | -3.06346 | -60.67353 | 18828 ft | 434 kts | 265° |
| 2026-04-27 22:29 | -3.06629 | -60.70383 | 19481 ft | 438 kts | 265° |
| 2026-04-27 22:29 | -3.06914 | -60.73434 | 20148 ft | 442 kts | 265° |
| 2026-04-27 22:29 | -3.07197 | -60.76473 | 20784 ft | 446 kts | 264° |
| 2026-04-27 22:30 | -3.07487 | -60.79589 | 21413 ft | 451 kts | 264° |
| 2026-04-27 22:30 | -3.07781 | -60.82732 | 22036 ft | 455 kts | 264° |
| 2026-04-27 22:30 | -3.08076 | -60.85904 | 22653 ft | 459 kts | 264° |
| 2026-04-27 22:30 | -3.08376 | -60.89115 | 23271 ft | 464 kts | 264° |
| 2026-04-27 22:31 | -3.08673 | -60.92311 | 23799 ft | 467 kts | 264° |
| 2026-04-27 22:31 | -3.08977 | -60.95564 | 24317 ft | 471 kts | 264° |
| 2026-04-27 22:31 | -3.09281 | -60.98832 | 24832 ft | 474 kts | 264° |
| 2026-04-27 22:31 | -3.09587 | -61.02121 | 25336 ft | 477 kts | 264° |
| 2026-04-27 22:32 | -3.09896 | -61.05438 | 25822 ft | 480 kts | 264° |
| 2026-04-27 22:32 | -3.10206 | -61.08775 | 26335 ft | 482 kts | 264° |
| 2026-04-27 22:32 | -3.10518 | -61.12131 | 26831 ft | 485 kts | 264° |
| 2026-04-27 22:32 | -3.10832 | -61.15514 | 27311 ft | 489 kts | 264° |
| 2026-04-27 22:33 | -3.11149 | -61.18925 | 27777 ft | 492 kts | 264° |
| 2026-04-27 22:33 | -3.11463 | -61.22297 | 28222 ft | 495 kts | 264° |
| 2026-04-27 22:33 | -3.11783 | -61.25743 | 28672 ft | 498 kts | 264° |
| 2026-04-27 22:33 | -3.12105 | -61.29217 | 29109 ft | 502 kts | 264° |
| 2026-04-27 22:34 | -3.12430 | -61.32712 | 29533 ft | 505 kts | 264° |
| 2026-04-27 22:34 | -3.12755 | -61.36221 | 29922 ft | 508 kts | 264° |
| 2026-04-27 22:34 | -3.13083 | -61.39755 | 30230 ft | 511 kts | 264° |
| 2026-04-27 22:34 | -3.13412 | -61.43312 | 30539 ft | 513 kts | 264° |
| 2026-04-27 22:35 | -3.13742 | -61.46874 | 30930 ft | 513 kts | 264° |
| 2026-04-27 22:35 | -3.14066 | -61.50379 | 31388 ft | 512 kts | 264° |
| 2026-04-27 22:35 | -3.14395 | -61.53932 | 31859 ft | 510 kts | 264° |
| 2026-04-27 22:35 | -3.14723 | -61.57469 | 32300 ft | 510 kts | 264° |
| 2026-04-27 22:36 | -3.15049 | -61.61002 | 32731 ft | 509 kts | 264° |
| 2026-04-27 22:36 | -3.15377 | -61.64544 | 33159 ft | 509 kts | 264° |
| 2026-04-27 22:36 | -3.15699 | -61.68023 | 33589 ft | 508 kts | 264° |
| 2026-04-27 22:36 | -3.16024 | -61.71544 | 34009 ft | 507 kts | 264° |
| 2026-04-27 22:37 | -3.16349 | -61.75060 | 34396 ft | 506 kts | 264° |
| 2026-04-27 22:37 | -3.16672 | -61.78562 | 34810 ft | 504 kts | 264° |
| 2026-04-27 22:37 | -3.16994 | -61.82046 | 35231 ft | 502 kts | 264° |
| 2026-04-27 22:37 | -3.17314 | -61.85516 | 35629 ft | 500 kts | 264° |
| 2026-04-27 22:38 | -3.17634 | -61.88986 | 36012 ft | 499 kts | 264° |
| 2026-04-27 22:38 | -3.17952 | -61.92440 | 36390 ft | 497 kts | 264° |
| 2026-04-27 22:38 | -3.18270 | -61.95891 | 36683 ft | 498 kts | 264° |
| 2026-04-27 22:38 | -3.18585 | -61.99307 | 36957 ft | 499 kts | 264° |
| 2026-04-27 22:39 | -3.18903 | -62.02756 | 37312 ft | 497 kts | 264° |
| 2026-04-27 22:39 | -3.19219 | -62.06199 | 37689 ft | 495 kts | 264° |
| 2026-04-27 22:39 | -3.19535 | -62.09633 | 37933 ft | 496 kts | 264° |
| 2026-04-27 22:40 | -3.20135 | -62.16554 | 37892 ft | 499 kts | 265° |
| 2026-04-27 22:40 | -3.20551 | -62.23460 | 37874 ft | 494 kts | 266° |
| 2026-04-27 22:41 | -3.20985 | -62.30336 | 37887 ft | 495 kts | 265° |
| 2026-04-27 22:41 | -3.21490 | -62.37186 | 37896 ft | 497 kts | 265° |
| 2026-04-27 22:42 | -3.22021 | -62.44094 | 37894 ft | 498 kts | 265° |
| 2026-04-27 22:42 | -3.22544 | -62.50988 | 37899 ft | 499 kts | 265° |
| 2026-04-27 22:43 | -3.23064 | -62.57932 | 37894 ft | 499 kts | 265° |
| 2026-04-27 22:43 | -3.23579 | -62.64859 | 37890 ft | 499 kts | 265° |
| 2026-04-27 22:44 | -3.24094 | -62.71790 | 37892 ft | 498 kts | 265° |
| 2026-04-27 22:44 | -3.24608 | -62.78706 | 37885 ft | 497 kts | 265° |
| 2026-04-27 22:45 | -3.25119 | -62.85580 | 37907 ft | 496 kts | 265° |
| 2026-04-27 22:45 | -3.25629 | -62.92456 | 37887 ft | 495 kts | 265° |
| 2026-04-27 22:46 | -3.26137 | -62.99295 | 37889 ft | 493 kts | 265° |
| 2026-04-27 22:46 | -3.26644 | -63.06136 | 37893 ft | 492 kts | 265° |
| 2026-04-27 22:47 | -3.27151 | -63.12979 | 37896 ft | 491 kts | 265° |
| 2026-04-27 22:47 | -3.27652 | -63.19762 | 37902 ft | 491 kts | 265° |
| 2026-04-27 22:48 | -3.28157 | -63.26588 | 37885 ft | 492 kts | 265° |
| 2026-04-27 22:48 | -3.28662 | -63.33428 | 37895 ft | 493 kts | 265° |
| 2026-04-27 22:49 | -3.29082 | -63.39120 | 37902 ft | 493 kts | 265° |
| 2026-04-27 22:49 | -3.29587 | -63.45978 | 37898 ft | 494 kts | 265° |
| 2026-04-27 22:50 | -3.30175 | -63.53959 | 37888 ft | 494 kts | 265° |
| 2026-04-27 22:50 | -3.30594 | -63.59665 | 37895 ft | 494 kts | 265° |
| 2026-04-27 22:51 | -3.31098 | -63.66519 | 37892 ft | 493 kts | 265° |
| 2026-04-27 22:51 | -3.31601 | -63.73368 | 37885 ft | 493 kts | 265° |
| 2026-04-27 22:52 | -3.32100 | -63.80210 | 37902 ft | 492 kts | 265° |
| 2026-04-27 22:52 | -3.32596 | -63.87032 | 37894 ft | 490 kts | 265° |
| 2026-04-27 22:53 | -3.33091 | -63.93831 | 37887 ft | 489 kts | 265° |
| 2026-04-27 22:53 | -3.33581 | -64.00577 | 37899 ft | 487 kts | 265° |
| 2026-04-27 22:54 | -3.34069 | -64.07309 | 37904 ft | 486 kts | 264° |
| 2026-04-27 22:54 | -3.34560 | -64.14069 | 37891 ft | 485 kts | 264° |
| 2026-04-27 22:55 | -3.35048 | -64.20803 | 37898 ft | 484 kts | 264° |
| 2026-04-27 22:55 | -3.35534 | -64.27506 | 37892 ft | 484 kts | 264° |
| 2026-04-27 22:56 | -3.36020 | -64.34227 | 37898 ft | 484 kts | 264° |
| 2026-04-27 22:56 | -3.36506 | -64.40960 | 37904 ft | 484 kts | 264° |
| 2026-04-27 22:57 | -3.36989 | -64.47649 | 37892 ft | 485 kts | 264° |
| 2026-04-27 22:57 | -3.37476 | -64.54396 | 37895 ft | 485 kts | 264° |
| 2026-04-27 22:58 | -3.37963 | -64.61159 | 37901 ft | 486 kts | 264° |
| 2026-04-27 22:58 | -3.38446 | -64.67867 | 37901 ft | 487 kts | 264° |
| 2026-04-27 22:59 | -3.39034 | -64.74625 | 37878 ft | 486 kts | 260° |
| 2026-04-27 22:59 | -3.40088 | -64.81307 | 37875 ft | 486 kts | 259° |
| 2026-04-27 23:00 | -3.41717 | -64.91291 | 37878 ft | 486 kts | 259° |
| 2026-04-27 23:00 | -3.42777 | -64.97981 | 37899 ft | 486 kts | 259° |
| 2026-04-27 23:01 | -3.43832 | -65.04685 | 37902 ft | 487 kts | 260° |
| 2026-04-27 23:01 | -3.44880 | -65.11354 | 37889 ft | 487 kts | 260° |
| 2026-04-27 23:02 | -3.45937 | -65.18070 | 37887 ft | 488 kts | 260° |
| 2026-04-27 23:02 | -3.46987 | -65.24746 | 37888 ft | 488 kts | 260° |
| 2026-04-27 23:03 | -3.48043 | -65.31462 | 37903 ft | 488 kts | 260° |
| 2026-04-27 23:03 | -3.49097 | -65.38205 | 37887 ft | 489 kts | 260° |
| 2026-04-27 23:04 | -3.50130 | -65.44882 | 37897 ft | 488 kts | 260° |
| 2026-04-27 23:04 | -3.51171 | -65.51609 | 37905 ft | 488 kts | 260° |
| 2026-04-27 23:05 | -3.52212 | -65.58334 | 37902 ft | 488 kts | 260° |
| 2026-04-27 23:05 | -3.53247 | -65.65019 | 37903 ft | 487 kts | 260° |
| 2026-04-27 23:06 | -3.54285 | -65.71727 | 37889 ft | 486 kts | 260° |
| 2026-04-27 23:06 | -3.55319 | -65.78412 | 37893 ft | 485 kts | 260° |
| 2026-04-27 23:07 | -3.56357 | -65.85071 | 37890 ft | 483 kts | 259° |
| 2026-04-27 23:07 | -3.57389 | -65.91679 | 37893 ft | 483 kts | 259° |
| 2026-04-27 23:08 | -3.58426 | -65.98334 | 37899 ft | 481 kts | 259° |
| 2026-04-27 23:08 | -3.59457 | -66.04954 | 37888 ft | 480 kts | 259° |
| 2026-04-27 23:09 | -3.60481 | -66.11533 | 37889 ft | 479 kts | 259° |
| 2026-04-27 23:09 | -3.61507 | -66.18131 | 37891 ft | 479 kts | 259° |
| 2026-04-27 23:10 | -3.62530 | -66.24714 | 37896 ft | 478 kts | 259° |
| 2026-04-27 23:10 | -3.63547 | -66.31257 | 37889 ft | 478 kts | 259° |
| 2026-04-27 23:11 | -3.64570 | -66.37844 | 37902 ft | 478 kts | 259° |
| 2026-04-27 23:11 | -3.65593 | -66.44434 | 37905 ft | 479 kts | 259° |
| 2026-04-27 23:12 | -3.66615 | -66.51024 | 37900 ft | 479 kts | 259° |
| 2026-04-27 23:12 | -3.67637 | -66.57619 | 37892 ft | 479 kts | 259° |
| 2026-04-27 23:13 | -3.68657 | -66.64199 | 37892 ft | 480 kts | 259° |
| 2026-04-27 23:13 | -3.69683 | -66.70810 | 37892 ft | 480 kts | 259° |
| 2026-04-27 23:14 | -3.70731 | -66.77420 | 37899 ft | 481 kts | 259° |
| 2026-04-27 23:14 | -3.71780 | -66.84032 | 37901 ft | 481 kts | 259° |
| 2026-04-27 23:15 | -3.72812 | -66.90609 | 37892 ft | 481 kts | 260° |
| 2026-04-27 23:15 | -3.73845 | -66.97250 | 37898 ft | 482 kts | 260° |
| 2026-04-27 23:16 | -3.74872 | -67.03850 | 37889 ft | 482 kts | 260° |
| 2026-04-27 23:16 | -3.75910 | -67.10509 | 37891 ft | 483 kts | 260° |
| 2026-04-27 23:17 | -3.76945 | -67.17158 | 37894 ft | 483 kts | 260° |
| 2026-04-27 23:17 | -3.77984 | -67.23831 | 37881 ft | 484 kts | 260° |
| 2026-04-27 23:18 | -3.79012 | -67.30445 | 37896 ft | 484 kts | 260° |
| 2026-04-27 23:18 | -3.80046 | -67.37113 | 37895 ft | 485 kts | 260° |
| 2026-04-27 23:19 | -3.81077 | -67.43796 | 37895 ft | 486 kts | 260° |
| 2026-04-27 23:19 | -3.82107 | -67.50484 | 37892 ft | 486 kts | 260° |
| 2026-04-27 23:20 | -3.83139 | -67.57187 | 37877 ft | 486 kts | 260° |
| 2026-04-27 23:20 | -3.84171 | -67.63887 | 37890 ft | 486 kts | 260° |
| 2026-04-27 23:21 | -3.85195 | -67.70542 | 37895 ft | 487 kts | 260° |
| 2026-04-27 23:21 | -3.86228 | -67.77256 | 37891 ft | 487 kts | 260° |
| 2026-04-27 23:22 | -3.87260 | -67.83971 | 37896 ft | 487 kts | 260° |
| 2026-04-27 23:22 | -3.88284 | -67.90634 | 37891 ft | 487 kts | 260° |
| 2026-04-27 23:23 | -3.89315 | -67.97347 | 37891 ft | 487 kts | 260° |
| 2026-04-27 23:23 | -3.90344 | -68.04051 | 37891 ft | 487 kts | 260° |
| 2026-04-27 23:24 | -3.91372 | -68.10750 | 37893 ft | 487 kts | 260° |
| 2026-04-27 23:24 | -3.92394 | -68.17420 | 37895 ft | 486 kts | 260° |
| 2026-04-27 23:25 | -3.93422 | -68.24127 | 37894 ft | 486 kts | 260° |
| 2026-04-27 23:25 | -3.94448 | -68.30826 | 37890 ft | 486 kts | 260° |
| 2026-04-27 23:26 | -3.95468 | -68.37491 | 37894 ft | 486 kts | 260° |
| 2026-04-27 23:26 | -3.96493 | -68.44186 | 37891 ft | 486 kts | 260° |
| 2026-04-27 23:27 | -3.97516 | -68.50880 | 37892 ft | 486 kts | 260° |
| 2026-04-27 23:27 | -3.98532 | -68.57529 | 37896 ft | 486 kts | 260° |
| 2026-04-27 23:28 | -3.99553 | -68.64212 | 37900 ft | 486 kts | 260° |
| 2026-04-27 23:28 | -4.00402 | -68.69778 | 37898 ft | 486 kts | 260° |
| 2026-04-27 23:29 | -4.01595 | -68.77605 | 37898 ft | 486 kts | 260° |
| 2026-04-27 23:29 | -4.02613 | -68.84311 | 37893 ft | 486 kts | 260° |
| 2026-04-27 23:30 | -4.03628 | -68.91005 | 37897 ft | 486 kts | 261° |
| 2026-04-27 23:30 | -4.04638 | -68.97669 | 37899 ft | 487 kts | 261° |
| 2026-04-27 23:31 | -4.05655 | -69.04384 | 37896 ft | 487 kts | 261° |
| 2026-04-27 23:31 | -4.06673 | -69.11110 | 37893 ft | 487 kts | 261° |
| 2026-04-27 23:32 | -4.07685 | -69.17793 | 37900 ft | 488 kts | 261° |
| 2026-04-27 23:32 | -4.08701 | -69.24513 | 37885 ft | 488 kts | 261° |
| 2026-04-27 23:33 | -4.09717 | -69.31237 | 37903 ft | 488 kts | 261° |
| 2026-04-27 23:33 | -4.10734 | -69.37967 | 37896 ft | 489 kts | 261° |
| 2026-04-27 23:34 | -4.11752 | -69.44712 | 37897 ft | 489 kts | 261° |
| 2026-04-27 23:34 | -4.12763 | -69.51409 | 37896 ft | 489 kts | 261° |
| 2026-04-27 23:35 | -4.13831 | -69.58144 | 37899 ft | 489 kts | 260° |
| 2026-04-27 23:35 | -4.14845 | -69.64888 | 37882 ft | 489 kts | 262° |
| 2026-04-27 23:36 | -4.15750 | -69.71640 | 37869 ft | 489 kts | 262° |
| 2026-04-27 23:36 | -4.16507 | -69.77249 | 37850 ft | 489 kts | 262° |
| 2026-04-27 23:37 | -4.17592 | -69.85129 | 37833 ft | 488 kts | 262° |
| 2026-04-27 23:37 | -4.18458 | -69.91834 | 37835 ft | 488 kts | 265° |
| 2026-04-27 23:38 | -4.18477 | -69.97495 | 37820 ft | 488 kts | 275° |
| 2026-04-27 23:38 | -4.17692 | -70.04264 | 37840 ft | 487 kts | 276° |
| 2026-04-27 23:39 | -4.16859 | -70.11003 | 37851 ft | 487 kts | 276° |
| 2026-04-27 23:39 | -4.16060 | -70.17704 | 37868 ft | 487 kts | 276° |
| 2026-04-27 23:40 | -4.15279 | -70.24446 | 37896 ft | 486 kts | 276° |
| 2026-04-27 23:40 | -4.14507 | -70.31165 | 37893 ft | 485 kts | 276° |
| 2026-04-27 23:41 | -4.13740 | -70.37834 | 37898 ft | 484 kts | 276° |
| 2026-04-27 23:41 | -4.12967 | -70.44529 | 37911 ft | 483 kts | 276° |
| 2026-04-27 23:42 | -4.12198 | -70.51182 | 37902 ft | 482 kts | 276° |
| 2026-04-27 23:42 | -4.11426 | -70.57867 | 37904 ft | 482 kts | 276° |
| 2026-04-27 23:43 | -4.10654 | -70.64535 | 37898 ft | 482 kts | 276° |
| 2026-04-27 23:43 | -4.09880 | -70.71216 | 37904 ft | 482 kts | 276° |
| 2026-04-27 23:44 | -4.09109 | -70.77873 | 37906 ft | 483 kts | 276° |
| 2026-04-27 23:44 | -4.08334 | -70.84558 | 37908 ft | 483 kts | 276° |
| 2026-04-27 23:45 | -4.07556 | -70.91264 | 37906 ft | 484 kts | 276° |
| 2026-04-27 23:45 | -4.06782 | -70.97926 | 37907 ft | 484 kts | 276° |
| 2026-04-27 23:46 | -4.06001 | -71.04642 | 37912 ft | 484 kts | 276° |
| 2026-04-27 23:46 | -4.05224 | -71.11323 | 37909 ft | 484 kts | 276° |
| 2026-04-27 23:47 | -4.04443 | -71.18030 | 37908 ft | 485 kts | 276° |
| 2026-04-27 23:47 | -4.03661 | -71.24743 | 37904 ft | 485 kts | 276° |
| 2026-04-27 23:48 | -4.02879 | -71.31454 | 37904 ft | 485 kts | 276° |
| 2026-04-27 23:48 | -4.02097 | -71.38155 | 37911 ft | 484 kts | 276° |
| 2026-04-27 23:49 | -4.01320 | -71.44819 | 37912 ft | 484 kts | 276° |
| 2026-04-27 23:49 | -4.00536 | -71.51526 | 37905 ft | 484 kts | 276° |
| 2026-04-27 23:50 | -3.99752 | -71.58231 | 37913 ft | 484 kts | 277° |
| 2026-04-27 23:50 | -3.98969 | -71.64932 | 37902 ft | 484 kts | 277° |
| 2026-04-27 23:51 | -3.98185 | -71.71621 | 37899 ft | 483 kts | 277° |
| 2026-04-27 23:51 | -3.97407 | -71.78265 | 37905 ft | 483 kts | 277° |
| 2026-04-27 23:52 | -3.96623 | -71.84950 | 37914 ft | 482 kts | 277° |
| 2026-04-27 23:52 | -3.95839 | -71.91636 | 37912 ft | 482 kts | 276° |
| 2026-04-27 23:53 | -3.95055 | -71.98313 | 37907 ft | 482 kts | 276° |
| 2026-04-27 23:53 | -3.94277 | -72.04941 | 37904 ft | 482 kts | 276° |
| 2026-04-27 23:54 | -3.93492 | -72.11614 | 37911 ft | 481 kts | 276° |
| 2026-04-27 23:54 | -3.92708 | -72.18285 | 37910 ft | 481 kts | 276° |
| 2026-04-27 23:55 | -3.91923 | -72.24953 | 37917 ft | 481 kts | 276° |
| 2026-04-27 23:55 | -3.91143 | -72.31567 | 37910 ft | 481 kts | 276° |
| 2026-04-27 23:56 | -3.90359 | -72.38226 | 37908 ft | 481 kts | 276° |
| 2026-04-27 23:56 | -3.89573 | -72.44890 | 37922 ft | 482 kts | 276° |
| 2026-04-27 23:57 | -3.88786 | -72.51559 | 37920 ft | 482 kts | 276° |
| 2026-04-27 23:57 | -3.88000 | -72.58224 | 37913 ft | 482 kts | 276° |
| 2026-04-27 23:58 | -3.87214 | -72.64895 | 37915 ft | 482 kts | 276° |
| 2026-04-27 23:58 | -3.86428 | -72.71558 | 37913 ft | 482 kts | 276° |
| 2026-04-27 23:59 | -3.85648 | -72.78166 | 37916 ft | 481 kts | 276° |
| 2026-04-27 23:59 | -3.84861 | -72.84831 | 37917 ft | 481 kts | 276° |
| 2026-04-28 00:00 | -3.84075 | -72.91482 | 37925 ft | 481 kts | 276° |
| 2026-04-28 00:00 | -3.83292 | -72.98107 | 37929 ft | 480 kts | 277° |
| 2026-04-28 00:01 | -3.82507 | -73.04742 | 37914 ft | 479 kts | 277° |
| 2026-04-28 00:01 | -3.81723 | -73.11362 | 37927 ft | 478 kts | 277° |
| 2026-04-28 00:02 | -3.80940 | -73.17966 | 37913 ft | 476 kts | 277° |
| 2026-04-28 00:02 | -3.80160 | -73.24552 | 37907 ft | 476 kts | 277° |
| 2026-04-28 00:03 | -3.78856 | -73.31030 | 37922 ft | 475 kts | 290° |
| 2026-04-28 00:03 | -3.75942 | -73.36909 | 37900 ft | 474 kts | 304° |
| 2026-04-28 00:04 | -3.70216 | -73.45015 | 37920 ft | 475 kts | 305° |
| 2026-04-28 00:05 | -3.66474 | -73.50425 | 37909 ft | 476 kts | 304° |
| 2026-04-28 00:05 | -3.62714 | -73.55915 | 37926 ft | 476 kts | 304° |
| 2026-04-28 00:06 | -3.58968 | -73.61400 | 37928 ft | 477 kts | 304° |
| 2026-04-28 00:06 | -3.55244 | -73.66853 | 37911 ft | 477 kts | 305° |
| 2026-04-28 00:07 | -3.51482 | -73.72358 | 37928 ft | 479 kts | 305° |
| 2026-04-28 00:07 | -3.47716 | -73.77867 | 37935 ft | 480 kts | 305° |
| 2026-04-28 00:08 | -3.43940 | -73.83390 | 37930 ft | 481 kts | 305° |
| 2026-04-28 00:08 | -3.40179 | -73.88889 | 37928 ft | 482 kts | 305° |
| 2026-04-28 00:09 | -3.36384 | -73.94438 | 37933 ft | 482 kts | 305° |
| 2026-04-28 00:09 | -3.32597 | -73.99976 | 37937 ft | 482 kts | 305° |
| 2026-04-28 00:10 | -3.28806 | -74.05516 | 37915 ft | 481 kts | 305° |
| 2026-04-28 00:10 | -3.25051 | -74.11005 | 37914 ft | 481 kts | 305° |
| 2026-04-28 00:11 | -3.21277 | -74.16520 | 37932 ft | 480 kts | 305° |
| 2026-04-28 00:11 | -3.17504 | -74.22032 | 37939 ft | 479 kts | 305° |
| 2026-04-28 00:12 | -3.13739 | -74.27532 | 37942 ft | 478 kts | 305° |
| 2026-04-28 00:12 | -3.09984 | -74.33017 | 37939 ft | 478 kts | 305° |
| 2026-04-28 00:13 | -3.06244 | -74.38478 | 37943 ft | 477 kts | 305° |
| 2026-04-28 00:13 | -3.02483 | -74.43969 | 37942 ft | 476 kts | 305° |
| 2026-04-28 00:14 | -2.98761 | -74.49404 | 37923 ft | 475 kts | 305° |
| 2026-04-28 00:14 | -2.95026 | -74.54856 | 37921 ft | 474 kts | 305° |
| 2026-04-28 00:15 | -2.91298 | -74.60297 | 37943 ft | 474 kts | 305° |
| 2026-04-28 00:15 | -2.87562 | -74.65748 | 37925 ft | 475 kts | 305° |
| 2026-04-28 00:16 | -2.83822 | -74.71206 | 37939 ft | 475 kts | 305° |
| 2026-04-28 00:16 | -2.80105 | -74.76630 | 37943 ft | 476 kts | 305° |
| 2026-04-28 00:17 | -2.76352 | -74.82104 | 37942 ft | 477 kts | 305° |
| 2026-04-28 00:17 | -2.72598 | -74.87580 | 37924 ft | 477 kts | 305° |
| 2026-04-28 00:18 | -2.68830 | -74.93074 | 37923 ft | 478 kts | 305° |
| 2026-04-28 00:18 | -2.65095 | -74.98521 | 37941 ft | 478 kts | 305° |
| 2026-04-28 00:19 | -2.61325 | -75.04019 | 37945 ft | 478 kts | 305° |
| 2026-04-28 00:19 | -2.57559 | -75.09508 | 37928 ft | 478 kts | 304° |
| 2026-04-28 00:20 | -2.53809 | -75.14976 | 37949 ft | 480 kts | 304° |
| 2026-04-28 00:20 | -2.50018 | -75.20501 | 37942 ft | 482 kts | 304° |
| 2026-04-28 00:21 | -2.46217 | -75.26044 | 37945 ft | 483 kts | 304° |
| 2026-04-28 00:21 | -2.42405 | -75.31598 | 37945 ft | 485 kts | 304° |
| 2026-04-28 00:22 | -2.38604 | -75.37130 | 37924 ft | 485 kts | 304° |
| 2026-04-28 00:22 | -2.34779 | -75.42696 | 37940 ft | 485 kts | 304° |
| 2026-04-28 00:23 | -2.30967 | -75.48242 | 37933 ft | 483 kts | 304° |
| 2026-04-28 00:23 | -2.27193 | -75.53735 | 37938 ft | 480 kts | 304° |
| 2026-04-28 00:24 | -2.23415 | -75.59233 | 37938 ft | 477 kts | 304° |
| 2026-04-28 00:24 | -2.19662 | -75.64694 | 37961 ft | 475 kts | 304° |
| 2026-04-28 00:25 | -2.16549 | -75.69223 | 37945 ft | 474 kts | 304° |
| 2026-04-28 00:25 | -2.12210 | -75.75536 | 37948 ft | 473 kts | 304° |
| 2026-04-28 00:26 | -2.09084 | -75.80082 | 37971 ft | 473 kts | 304° |
| 2026-04-28 00:26 | -2.05353 | -75.85511 | 37946 ft | 473 kts | 304° |
| 2026-04-28 00:27 | -2.01623 | -75.90936 | 37952 ft | 473 kts | 304° |
| 2026-04-28 00:27 | -1.97853 | -75.96296 | 37951 ft | 474 kts | 306° |
| 2026-04-28 00:28 | -1.93837 | -76.01543 | 37957 ft | 474 kts | 307° |
| 2026-04-28 00:28 | -1.89817 | -76.06733 | 37941 ft | 474 kts | 307° |
| 2026-04-28 00:29 | -1.85801 | -76.11973 | 37945 ft | 475 kts | 307° |
| 2026-04-28 00:29 | -1.81803 | -76.17229 | 37941 ft | 475 kts | 307° |
| 2026-04-28 00:30 | -1.77795 | -76.22506 | 37934 ft | 475 kts | 307° |
| 2026-04-28 00:30 | -1.73817 | -76.27741 | 37930 ft | 475 kts | 307° |
| 2026-04-28 00:31 | -1.69824 | -76.32994 | 37951 ft | 474 kts | 307° |
| 2026-04-28 00:31 | -1.65843 | -76.38231 | 37933 ft | 474 kts | 307° |
| 2026-04-28 00:32 | -1.61840 | -76.43495 | 37930 ft | 474 kts | 307° |
| 2026-04-28 00:32 | -1.57871 | -76.48714 | 37950 ft | 474 kts | 307° |
| 2026-04-28 00:33 | -1.53876 | -76.53968 | 37931 ft | 474 kts | 307° |
| 2026-04-28 00:33 | -1.49881 | -76.59221 | 37928 ft | 474 kts | 307° |
| 2026-04-28 00:34 | -1.45880 | -76.64481 | 37928 ft | 475 kts | 307° |
| 2026-04-28 00:34 | -1.41898 | -76.69717 | 37927 ft | 475 kts | 307° |
| 2026-04-28 00:35 | -1.37891 | -76.74984 | 37945 ft | 476 kts | 307° |
| 2026-04-28 00:35 | -1.33871 | -76.80268 | 37931 ft | 477 kts | 307° |
| 2026-04-28 00:36 | -1.29873 | -76.85524 | 37924 ft | 477 kts | 307° |
| 2026-04-28 00:36 | -1.25851 | -76.90811 | 37923 ft | 477 kts | 307° |
| 2026-04-28 00:37 | -1.21829 | -76.96097 | 37931 ft | 476 kts | 307° |
| 2026-04-28 00:37 | -1.17835 | -77.01345 | 37924 ft | 476 kts | 307° |
| 2026-04-28 00:38 | -1.13826 | -77.06615 | 37945 ft | 475 kts | 307° |
| 2026-04-28 00:38 | -1.09824 | -77.11873 | 37927 ft | 475 kts | 307° |
| 2026-04-28 00:39 | -1.05845 | -77.17103 | 37929 ft | 475 kts | 307° |
| 2026-04-28 00:39 | -1.01847 | -77.22355 | 37929 ft | 475 kts | 307° |
| 2026-04-28 00:40 | -0.97840 | -77.27621 | 37938 ft | 474 kts | 307° |
| 2026-04-28 00:40 | -0.93870 | -77.32838 | 37944 ft | 474 kts | 307° |
| 2026-04-28 00:41 | -0.89887 | -77.38070 | 37956 ft | 473 kts | 307° |
| 2026-04-28 00:41 | -0.85904 | -77.43304 | 37985 ft | 472 kts | 307° |
| 2026-04-28 00:42 | -0.81927 | -77.48528 | 37992 ft | 472 kts | 307° |
| 2026-04-28 00:42 | -0.77944 | -77.53762 | 37517 ft | 474 kts | 307° |
| 2026-04-28 00:42 | -0.75955 | -77.56375 | 37085 ft | 469 kts | 307° |
| 2026-04-28 00:43 | -0.74005 | -77.58938 | 36662 ft | 465 kts | 307° |
| 2026-04-28 00:43 | -0.72055 | -77.61499 | 36188 ft | 461 kts | 307° |
| 2026-04-28 00:43 | -0.70114 | -77.64049 | 35707 ft | 458 kts | 307° |
| 2026-04-28 00:43 | -0.68183 | -77.66584 | 35284 ft | 456 kts | 307° |
| 2026-04-28 00:44 | -0.66267 | -77.69100 | 34780 ft | 454 kts | 307° |
| 2026-04-28 00:44 | -0.64351 | -77.71618 | 34282 ft | 453 kts | 307° |
| 2026-04-28 00:44 | -0.62443 | -77.74124 | 33749 ft | 452 kts | 307° |
| 2026-04-28 00:44 | -0.60572 | -77.76583 | 33239 ft | 449 kts | 307° |
| 2026-04-28 00:45 | -0.58686 | -77.79062 | 32778 ft | 447 kts | 307° |
| 2026-04-28 00:45 | -0.56808 | -77.81531 | 32359 ft | 445 kts | 307° |
| 2026-04-28 00:45 | -0.54939 | -77.83987 | 31880 ft | 442 kts | 307° |
| 2026-04-28 00:45 | -0.53080 | -77.86430 | 31411 ft | 440 kts | 307° |
| 2026-04-28 00:46 | -0.51230 | -77.88860 | 30920 ft | 439 kts | 307° |
| 2026-04-28 00:46 | -0.49384 | -77.91287 | 30445 ft | 438 kts | 307° |
| 2026-04-28 00:46 | -0.47539 | -77.93711 | 29894 ft | 436 kts | 307° |
| 2026-04-28 00:46 | -0.45708 | -77.96116 | 29426 ft | 434 kts | 307° |
| 2026-04-28 00:47 | -0.43902 | -77.98490 | 28941 ft | 432 kts | 307° |
| 2026-04-28 00:47 | -0.42090 | -78.00870 | 28464 ft | 429 kts | 307° |
| 2026-04-28 00:47 | -0.40288 | -78.03239 | 28000 ft | 427 kts | 307° |
| 2026-04-28 00:47 | -0.38491 | -78.05600 | 27503 ft | 425 kts | 307° |
| 2026-04-28 00:48 | -0.36702 | -78.07951 | 27029 ft | 424 kts | 307° |
| 2026-04-28 00:48 | -0.34919 | -78.10294 | 26554 ft | 422 kts | 308° |
| 2026-04-28 00:48 | -0.33145 | -78.12626 | 26106 ft | 421 kts | 308° |
| 2026-04-28 00:48 | -0.31373 | -78.14954 | 25623 ft | 420 kts | 308° |
| 2026-04-28 00:49 | -0.29641 | -78.17231 | 25154 ft | 405 kts | 308° |
| 2026-04-28 00:49 | -0.27954 | -78.19448 | 24731 ft | 405 kts | 308° |
| 2026-04-28 00:49 | -0.26247 | -78.21690 | 24273 ft | 405 kts | 308° |
| 2026-04-28 00:49 | -0.24537 | -78.23937 | 23751 ft | 397 kts | 308° |
| 2026-04-28 00:50 | -0.22894 | -78.26098 | 23291 ft | 391 kts | 309° |
| 2026-04-28 00:50 | -0.21260 | -78.28245 | 22838 ft | 377 kts | 309° |
| 2026-04-28 00:50 | -0.19706 | -78.30289 | 22286 ft | 365 kts | 309° |
| 2026-04-28 00:50 | -0.18194 | -78.32275 | 21966 ft | 354 kts | 309° |
| 2026-04-28 00:51 | -0.16723 | -78.34207 | 21378 ft | 349 kts | 309° |
| 2026-04-28 00:51 | -0.15246 | -78.36146 | 20969 ft | 349 kts | 308° |
| 2026-04-28 00:51 | -0.13793 | -78.38054 | 20672 ft | 335 kts | 308° |
| 2026-04-28 00:51 | -0.12411 | -78.39872 | 20173 ft | 325 kts | 308° |
| 2026-04-28 00:52 | -0.11081 | -78.41667 | 19686 ft | 315 kts | 301° |
| 2026-04-28 00:52 | -0.10365 | -78.43663 | 19317 ft | 299 kts | 275° |
| 2026-04-28 00:52 | -0.10535 | -78.45679 | 19021 ft | 297 kts | 252° |
| 2026-04-28 00:52 | -0.11438 | -78.47534 | 18664 ft | 299 kts | 231° |
| 2026-04-28 00:53 | -0.12943 | -78.48944 | 18252 ft | 296 kts | 209° |
| 2026-04-28 00:53 | -0.14798 | -78.49713 | 18008 ft | 285 kts | 188° |
| 2026-04-28 00:53 | -0.16763 | -78.49849 | 17643 ft | 281 kts | 176° |
| 2026-04-28 00:53 | -0.18694 | -78.49746 | 17377 ft | 276 kts | 174° |
| 2026-04-28 00:54 | -0.20596 | -78.49591 | 17115 ft | 271 kts | 173° |
| 2026-04-28 00:54 | -0.22457 | -78.49430 | 16867 ft | 265 kts | 173° |
| 2026-04-28 00:54 | -0.24275 | -78.49274 | 16637 ft | 257 kts | 173° |
| 2026-04-28 00:54 | -0.26024 | -78.49128 | 16465 ft | 249 kts | 173° |
| 2026-04-28 00:55 | -0.27717 | -78.48988 | 16203 ft | 244 kts | 174° |
| 2026-04-28 00:55 | -0.29386 | -78.48853 | 15974 ft | 237 kts | 174° |
| 2026-04-28 00:55 | -0.31014 | -78.48723 | 15764 ft | 231 kts | 174° |
| 2026-04-28 00:55 | -0.32608 | -78.48596 | 15570 ft | 229 kts | 174° |
| 2026-04-28 00:56 | -0.34201 | -78.48469 | 15375 ft | 229 kts | 174° |
| 2026-04-28 00:56 | -0.35793 | -78.48335 | 15171 ft | 229 kts | 171° |
| 2026-04-28 00:56 | -0.37313 | -78.47904 | 14966 ft | 226 kts | 153° |
| 2026-04-28 00:56 | -0.38607 | -78.47070 | 14792 ft | 224 kts | 140° |
| 2026-04-28 00:57 | -0.39752 | -78.46023 | 14603 ft | 223 kts | 135° |
| 2026-04-28 00:57 | -0.40858 | -78.44933 | 14415 ft | 223 kts | 133° |
| 2026-04-28 00:57 | -0.41908 | -78.43789 | 14187 ft | 224 kts | 128° |
| 2026-04-28 00:57 | -0.42534 | -78.42388 | 13873 ft | 223 kts | 94° |
| 2026-04-28 00:58 | -0.42236 | -78.40890 | 13629 ft | 223 kts | 61° |
| 2026-04-28 00:58 | -0.41199 | -78.39748 | 13378 ft | 223 kts | 35° |
| 2026-04-28 00:58 | -0.39810 | -78.39000 | 13060 ft | 231 kts | 25° |
| 2026-04-28 00:58 | -0.38331 | -78.38349 | 12743 ft | 233 kts | 24° |
| 2026-04-28 00:59 | -0.36845 | -78.37698 | 12431 ft | 231 kts | 24° |
| 2026-04-28 00:59 | -0.35416 | -78.37063 | 12171 ft | 224 kts | 24° |
| 2026-04-28 00:59 | -0.34015 | -78.36433 | 11843 ft | 217 kts | 25° |
| 2026-04-28 00:59 | -0.32684 | -78.35831 | 11566 ft | 201 kts | 25° |
| 2026-04-28 01:00 | -0.31437 | -78.35266 | 11388 ft | 198 kts | 25° |
| 2026-04-28 01:00 | -0.30157 | -78.34763 | 11152 ft | 198 kts | 11° |
| 2026-04-28 01:00 | -0.28806 | -78.34761 | 10921 ft | 190 kts | 357° |
| 2026-04-28 01:00 | -0.27519 | -78.34807 | 10698 ft | 178 kts | 359° |
| 2026-04-28 01:01 | -0.26313 | -78.34848 | 10499 ft | 169 kts | 358° |
| 2026-04-28 01:01 | -0.25150 | -78.34895 | 10283 ft | 170 kts | 358° |
| 2026-04-28 01:01 | -0.23972 | -78.34946 | 10041 ft | 169 kts | 358° |
| 2026-04-28 01:01 | -0.22786 | -78.34997 | 9803 ft | 171 kts | 358° |
| 2026-04-28 01:02 | -0.21590 | -78.35048 | 9553 ft | 171 kts | 358° |
| 2026-04-28 01:02 | -0.20403 | -78.35099 | 9300 ft | 169 kts | 358° |
| 2026-04-28 01:02 | -0.19234 | -78.35153 | 9080 ft | 167 kts | 358° |
| 2026-04-28 01:02 | -0.18059 | -78.35212 | 8830 ft | 169 kts | 358° |
| 2026-04-28 01:03 | -0.16913 | -78.35254 | 8559 ft | 164 kts | 358° |
| 2026-04-28 01:03 | -0.15767 | -78.35301 | 8292 ft | 165 kts | 357° |
| 2026-04-28 01:03 | -0.14621 | -78.35354 | 8046 ft | 164 kts | 358° |
| 2026-04-28 01:03 | -0.13490 | -78.35403 | 7896 ft | 156 kts | 358° |
| 2026-04-28 01:04 | -0.12553 | -78.35438 | 7859 ft | 103 kts | 357° |
| 2026-04-28 01:04 | -0.12104 | -78.35457 | 7835 ft | 45 kts | 358° |
| 2026-04-28 01:04 | -0.11872 | -78.35468 | 7830 ft | 23 kts | 354° |
| 2026-04-28 01:04 | -0.11770 | -78.35494 | 7825 ft | 10 kts | 333° |
| 2026-04-28 01:05 | -0.11708 | -78.35526 | 7824 ft | 10 kts | 331° |
| 2026-04-28 01:05 | -0.11657 | -78.35556 | 7824 ft | 9 kts | 328° |
| 2026-04-28 01:05 | -0.11620 | -78.35599 | 7821 ft | 8 kts | 284° |
| 2026-04-28 01:05 | -0.11647 | -78.35639 | 7836 ft | 7 kts | 193° |
| 2026-04-28 01:06 | -0.11695 | -78.35640 | 7822 ft | 7 kts | 179° |
| 2026-04-28 01:06 | -0.11741 | -78.35639 | 7824 ft | 7 kts | 179° |
| 2026-04-28 01:06 | -0.11787 | -78.35638 | 7825 ft | 7 kts | 178° |
| 2026-04-28 01:06 | -0.11834 | -78.35636 | 7827 ft | 7 kts | 178° |
| 2026-04-28 01:07 | -0.11880 | -78.35634 | 7832 ft | 7 kts | 178° |
| 2026-04-28 01:07 | -0.11926 | -78.35632 | 7833 ft | 7 kts | 178° |
| 2026-04-28 01:07 | -0.11972 | -78.35631 | 7835 ft | 7 kts | 178° |
| 2026-04-28 01:07 | -0.12004 | -78.35629 | 7836 ft | 7 kts | 178° |
| 2026-04-28 01:08 | -0.12066 | -78.35627 | 7838 ft | 7 kts | 178° |
| 2026-04-28 01:08 | -0.12119 | -78.35625 | 7839 ft | 8 kts | 178° |
| 2026-04-28 01:08 | -0.12184 | -78.35622 | 7836 ft | 10 kts | 177° |
| 2026-04-28 01:08 | -0.12257 | -78.35619 | 7846 ft | 11 kts | 177° |
| 2026-04-28 01:09 | -0.12317 | -78.35617 | 7848 ft | 8 kts | 182° |
| 2026-04-28 01:09 | -0.12350 | -78.35651 | 7849 ft | 7 kts | 253° |
| 2026-04-28 01:09 | -0.12358 | -78.35696 | 7838 ft | 3 kts | 264° |
| 2026-04-28 01:09 | -0.12358 | -78.35697 | 7839 ft | 0 kts | 264° |
| 2026-04-28 01:13 | -0.12358 | -78.35703 | 7839 ft | 3 kts | 264° |
| 2026-04-28 01:13 | -0.12364 | -78.35782 | 7841 ft | 8 kts | 266° |
| 2026-04-28 01:13 | -0.12362 | -78.35825 | 7840 ft | 5 kts | 296° |
| 2026-04-28 01:14 | -0.12335 | -78.35839 | 7838 ft | 2 kts | 339° |
| 2026-04-28 01:14 | -0.12321 | -78.35843 | 7843 ft | 2 kts | 352° |
| 2026-04-28 01:14 | -0.12314 | -78.35843 | 7843 ft | 1 kts | 352° |
| 2026-04-28 01:14 | -0.12303 | -78.35844 | 7846 ft | 3 kts | 355° |
| 2026-04-28 01:15 | -0.12271 | -78.35847 | 7847 ft | 7 kts | 349° |
| 2026-04-28 01:15 | -0.12254 | -78.35875 | 7843 ft | 4 kts | 277° |
| 2026-04-28 01:15 | -0.12252 | -78.35899 | 7844 ft | 3 kts | 273° |
| 2026-04-28 01:15 | -0.12252 | -78.35911 | 7848 ft | 2 kts | 270° |
| 2026-04-28 01:16 | -0.12252 | -78.35922 | 7848 ft | 2 kts | 269° |
| 2026-04-28 01:16 | -0.12252 | -78.35925 | 7848 ft | 0 kts | 269° |